Cardinal — V7IB3 — position and weather

sailwx.info

Track history (hours):
 
Tides and Currents Weather Stations Pressure Air Temp Water Temp Dewpoint Dewpoint Depression Visibility Wind Speed Wind Dir Waves Ship Positions

Cardinal

Last reported at 2015-May-27 03:07 UTC. Time now 2015-May-29 10:11 UTC.
Position N 41°06' W 009°49'.

Length 191 m; draft 12.5 m.

Type: Cargo ship. MMSI: 538002349.

Date/timePositionNaut miles runAvg speedWind from/ knotsBaromVisibWave heightAir tempDewpointWater temp
2015-May-27 03:07N 41°06' W 009°49'35 9.9
2015-May-26 23:32N 40°31' W 009°49'1010.2
2015-May-26 22:33N 40°21' W 009°49'1010.4
2015-May-26 21:33N 40°10' W 009°49'1110.6
2015-May-26 20:33N 39°60' W 009°50'1110.7
2015-May-26 19:33N 39°49' W 009°50'1110.6
2015-May-26 18:33N 39°39' W 009°50'1010.4
2015-May-26 17:33N 39°28' W 009°50'1110.5
2015-May-26 16:33N 39°18' W 009°50'1010.4
2015-May-26 15:33N 39°07' W 009°50'1110.6
2015-May-26 14:33N 38°57' W 009°50'1010.4
2015-May-26 13:33N 38°46' W 009°50'9 9.0
2015-May-26 12:33N 38°38' W 009°46'1111.0
2015-May-26 11:33N 38°39' W 009°32'6 5.7
2015-May-26 10:33N 38°40' W 009°24'0 0.0
2015-May-26 09:33N 38°40' W 009°24'0 0.0
2015-May-26 08:33N 38°40' W 009°25'0 0.0
2015-May-26 07:27N 38°40' W 009°25'0 0.0
2015-May-26 06:33N 38°40' W 009°25'0 0.0
2015-May-26 05:33N 38°40' W 009°25'0 0.1
2015-May-26 04:33N 38°40' W 009°24'5 5.2
2015-May-26 03:33N 38°36' W 009°29'1110.5
2015-May-26 02:33N 38°26' W 009°32'1111.2
2015-May-26 01:33N 38°15' W 009°31'1110.9
2015-May-26 00:33N 38°04' W 009°30'1110.9
2015-May-25 23:33N 37°53' W 009°29'1111.1
2015-May-25 22:33N 37°42' W 009°28'1110.9
2015-May-25 21:33N 37°31' W 009°27'1111.0
2015-May-25 20:33N 37°20' W 009°27'1111.1
2015-May-25 19:32N 37°09' W 009°26'1111.0
2015-May-25 18:33N 36°58' W 009°25'1211.0
2015-May-25 17:27N 36°47' W 009°18'1210.9
2015-May-25 16:19N 36°39' W 009°06'811.2
2015-May-25 15:33N 36°37' W 008°56'1211.5
2015-May-25 14:33N 36°34' W 008°42'1511.7
2015-May-25 13:17N 36°30' W 008°24'13811.6
2015-May-25 01:18N 35°58' W 005°37'7 9.8
2015-May-25 00:33N 35°60' W 005°28'1010.2
2015-May-24 23:33N 36°02' W 005°16'  
2015-May-21 13:06N 36°48' E 012°48'1910.8
2015-May-21 11:23N 36°46' E 013°11'1010.9
2015-May-21 10:26N 36°44' E 013°24'1011.0
2015-May-21 09:33N 36°43' E 013°36'1111.2
2015-May-21 08:33N 36°41' E 013°50'1211.8
2015-May-21 07:33N 36°39' E 014°04'1212.0
2015-May-21 06:33N 36°37' E 014°19'1111.5
2015-May-21 05:33N 36°36' E 014°33'1111.3
2015-May-21 04:33N 36°34' E 014°47'1211.7
2015-May-21 03:29N 36°32' E 015°02'1111.9
2015-May-21 02:33N 36°30' E 015°16'1212.1
2015-May-21 01:32N 36°29' E 015°31'1212.4
2015-May-21 00:33N 36°27' E 015°46'1612.3
2015-May-20 23:17N 36°25' E 016°05'912.0
2015-May-20 22:32N 36°24' E 016°17'1211.8
2015-May-20 21:33N 36°23' E 016°31'3511.7
2015-May-20 18:31N 36°21' E 017°15'1311.7
2015-May-20 17:24N 36°20' E 017°31'1011.7
2015-May-20 16:33N 36°19' E 017°44'1211.9
2015-May-20 15:33N 36°19' E 017°58'27911.1
2015-May-19 14:29N 36°31' E 023°44'383 7.8
2015-May-17 13:32N 41°21' E 029°05'2 0.4
2015-May-17 09:16N 41°22' E 029°04'  
Track history (hours):
 
Tides and Currents Weather Stations Pressure Air Temp Water Temp Dewpoint Dewpoint Depression Visibility Wind Speed Wind Dir Waves Ship Positions

Cardinal

Last reported at 2015-May-27 03:07 UTC. Time now 2015-May-29 10:11 UTC.
Position N 41°06' W 009°49'.

Length 191 m; draft 12.5 m.

Type: Cargo ship. MMSI: 538002349.

Date/timePositionNaut miles runAvg speedWind from/ knotsBaromVisibWave heightAir tempDewpointWater temp
2015-May-27 03:07N 41°06' W 009°49'35 9.9
2015-May-26 23:32N 40°31' W 009°49'1010.2
2015-May-26 22:33N 40°21' W 009°49'1010.4
2015-May-26 21:33N 40°10' W 009°49'1110.6
2015-May-26 20:33N 39°60' W 009°50'1110.7
2015-May-26 19:33N 39°49' W 009°50'1110.6
2015-May-26 18:33N 39°39' W 009°50'1010.4
2015-May-26 17:33N 39°28' W 009°50'1110.5
2015-May-26 16:33N 39°18' W 009°50'1010.4
2015-May-26 15:33N 39°07' W 009°50'1110.6
2015-May-26 14:33N 38°57' W 009°50'1010.4
2015-May-26 13:33N 38°46' W 009°50'9 9.0
2015-May-26 12:33N 38°38' W 009°46'1111.0
2015-May-26 11:33N 38°39' W 009°32'6 5.7
2015-May-26 10:33N 38°40' W 009°24'0 0.0
2015-May-26 09:33N 38°40' W 009°24'0 0.0
2015-May-26 08:33N 38°40' W 009°25'0 0.0
2015-May-26 07:27N 38°40' W 009°25'0 0.0
2015-May-26 06:33N 38°40' W 009°25'0 0.0
2015-May-26 05:33N 38°40' W 009°25'0 0.1
2015-May-26 04:33N 38°40' W 009°24'5 5.2
2015-May-26 03:33N 38°36' W 009°29'1110.5
2015-May-26 02:33N 38°26' W 009°32'1111.2
2015-May-26 01:33N 38°15' W 009°31'1110.9
2015-May-26 00:33N 38°04' W 009°30'1110.9
2015-May-25 23:33N 37°53' W 009°29'1111.1
2015-May-25 22:33N 37°42' W 009°28'1110.9
2015-May-25 21:33N 37°31' W 009°27'1111.0
2015-May-25 20:33N 37°20' W 009°27'1111.1
2015-May-25 19:32N 37°09' W 009°26'1111.0
2015-May-25 18:33N 36°58' W 009°25'1211.0
2015-May-25 17:27N 36°47' W 009°18'1210.9
2015-May-25 16:19N 36°39' W 009°06'811.2
2015-May-25 15:33N 36°37' W 008°56'1211.5
2015-May-25 14:33N 36°34' W 008°42'1511.7
2015-May-25 13:17N 36°30' W 008°24'13811.6
2015-May-25 01:18N 35°58' W 005°37'7 9.8
2015-May-25 00:33N 35°60' W 005°28'1010.2
2015-May-24 23:33N 36°02' W 005°16'  
2015-May-21 13:06N 36°48' E 012°48'1910.8
2015-May-21 11:23N 36°46' E 013°11'1010.9
2015-May-21 10:26N 36°44' E 013°24'1011.0
2015-May-21 09:33N 36°43' E 013°36'1111.2
2015-May-21 08:33N 36°41' E 013°50'1211.8
2015-May-21 07:33N 36°39' E 014°04'1212.0
2015-May-21 06:33N 36°37' E 014°19'1111.5
2015-May-21 05:33N 36°36' E 014°33'1111.3
2015-May-21 04:33N 36°34' E 014°47'1211.7
2015-May-21 03:29N 36°32' E 015°02'1111.9
2015-May-21 02:33N 36°30' E 015°16'1212.1
2015-May-21 01:32N 36°29' E 015°31'1212.4
2015-May-21 00:33N 36°27' E 015°46'1612.3
2015-May-20 23:17N 36°25' E 016°05'912.0
2015-May-20 22:32N 36°24' E 016°17'1211.8
2015-May-20 21:33N 36°23' E 016°31'3511.7
2015-May-20 18:31N 36°21' E 017°15'1311.7
2015-May-20 17:24N 36°20' E 017°31'1011.7
2015-May-20 16:33N 36°19' E 017°44'1211.9
2015-May-20 15:33N 36°19' E 017°58'27911.1
2015-May-19 14:29N 36°31' E 023°44'383 7.8
2015-May-17 13:32N 41°21' E 029°05'2 0.4
2015-May-17 09:16N 41°22' E 029°04'  

Dump ship's entire track history